Time;durP1;ratioP1;P1;durP2;ratioP2;P2;SDS_P1;SDS_P2;PMS_P1;PMS_P2;Temp;Humidity;BMP_temperature;BMP_pressure;BME280_temperature;BME280_humidity;BME280_pressure;Samples;Min_cycle;Max_cycle;Signal;HPM_P1;HPM_P2
2023/11/02 00:00:34;;;;;;;5.82;1.98;;;10.20;99.90;;;;;;5057448;28;20044;-74
2023/11/02 00:03:07;;;;;;;5.50;2.10;;;10.20;99.90;;;;;;5074975;28;20044;-75
2023/11/02 00:05:56;;;;;;;5.53;1.90;;;10.10;99.90;;;;;;5075154;28;20149;-75
2023/11/02 00:08:31;;;;;;;8.15;2.42;;;10.10;99.90;;;;;;5063085;28;20529;-75
2023/11/02 00:10:58;;;;;;;7.38;2.10;;;10.10;99.90;;;;;;5078404;28;20055;-75
2023/11/02 00:13:26;;;;;;;10.13;2.30;;;10.10;99.90;;;;;;5058730;28;20229;-74
2023/11/02 00:15:55;;;;;;;6.43;2.35;;;10.10;99.90;;;;;;5060101;28;20514;-75
2023/11/02 00:18:22;;;;;;;6.55;2.08;;;10.10;99.90;;;;;;5078356;28;21359;-75
2023/11/02 00:20:49;;;;;;;8.75;2.22;;;10.10;99.90;;;;;;5058795;28;20051;-74
2023/11/02 00:23:35;;;;;;;5.72;1.73;;;10.10;99.90;;;;;;5050868;28;20398;-75
2023/11/02 00:26:01;;;;;;;5.55;2.30;;;10.10;99.90;;;;;;5070199;28;20698;-79
2023/11/02 00:28:26;;;;;;;6.38;2.20;;;10.00;99.90;;;;;;5051355;28;20056;-78
2023/11/02 00:30:53;;;;;;;6.05;1.90;;;10.10;99.90;;;;;;5057655;28;20090;-80
2023/11/02 00:33:20;;;;;;;7.57;2.30;;;10.10;99.90;;;;;;5069205;28;20048;-79
2023/11/02 00:35:51;;;;;;;4.03;1.75;;;10.10;99.90;;;;;;5063545;28;20085;-78
2023/11/02 00:38:18;;;;;;;6.30;1.90;;;10.10;99.90;;;;;;5059002;28;20072;-80
2023/11/02 00:40:44;;;;;;;6.38;1.90;;;10.10;99.90;;;;;;5054470;28;20058;-79
2023/11/02 00:43:10;;;;;;;5.65;2.00;;;10.10;99.90;;;;;;5064379;28;20093;-79
2023/11/02 00:45:39;;;;;;;8.15;2.58;;;10.10;99.90;;;;;;5071552;28;20060;-79
2023/11/02 00:48:28;;;;;;;5.97;2.30;;;10.10;99.90;;;;;;5087935;28;20053;-78
2023/11/02 00:51:08;;;;;;;7.60;2.13;;;10.20;99.90;;;;;;5066083;28;20071;-79
2023/11/02 00:53:39;;;;;;;7.63;1.98;;;10.20;99.90;;;;;;5066914;28;20051;-80
2023/11/02 00:56:08;;;;;;;7.07;2.00;;;10.20;99.90;;;;;;5059547;28;20040;-79
2023/11/02 00:58:46;;;;;;;6.18;1.80;;;10.20;99.90;;;;;;5052880;28;20453;-79
2023/11/02 01:01:19;;;;;;;5.15;1.67;;;10.20;99.90;;;;;;5076488;28;20045;-78
2023/11/02 01:03:48;;;;;;;4.53;1.83;;;10.20;99.90;;;;;;5071158;28;20048;-79
2023/11/02 01:06:20;;;;;;;5.15;2.08;;;10.20;99.90;;;;;;5060611;28;20078;-80
2023/11/02 01:08:55;;;;;;;6.53;1.70;;;10.20;99.90;;;;;;5042639;28;20079;-80
2023/11/02 01:11:27;;;;;;;5.30;1.90;;;10.10;99.90;;;;;;5078485;28;20370;-79
2023/11/02 01:13:53;;;;;;;7.47;2.05;;;10.10;99.90;;;;;;5080879;28;20052;-79
2023/11/02 01:16:19;;;;;;;5.00;1.90;;;10.10;99.90;;;;;;5078918;28;20487;-80
2023/11/02 01:18:46;;;;;;;4.95;1.92;;;10.10;99.90;;;;;;5064563;28;20044;-80
2023/11/02 01:21:17;;;;;;;6.72;2.40;;;10.10;99.90;;;;;;5078508;28;20091;-80
2023/11/02 01:23:43;;;;;;;6.70;1.80;;;10.10;99.90;;;;;;5076949;28;20043;-79
2023/11/02 01:26:45;;;;;;;6.88;2.20;;;10.10;99.90;;;;;;5062308;28;20050;-79
2023/11/02 01:29:11;;;;;;;7.18;2.15;;;10.10;99.90;;;;;;5069616;28;20075;-79
2023/11/02 01:31:39;;;;;;;6.30;2.05;;;10.10;99.90;;;;;;5064597;28;20045;-79
2023/11/02 01:34:05;;;;;;;4.10;1.95;;;10.00;99.90;;;;;;5064034;28;20043;-79
2023/11/02 01:36:41;;;;;;;6.45;2.13;;;10.00;99.90;;;;;;5068225;28;20044;-79
2023/11/02 01:39:11;;;;;;;6.32;1.77;;;10.00;99.90;;;;;;5067520;28;20844;-79
2023/11/02 01:42:03;;;;;;;4.50;1.77;;;9.90;99.90;;;;;;5076189;28;20134;-81
2023/11/02 01:45:00;;;;;;;6.82;1.98;;;10.00;99.90;;;;;;5056504;28;20491;-79
2023/11/02 01:47:58;;;;;;;4.80;1.90;;;9.90;99.90;;;;;;5058828;28;20094;-79
2023/11/02 01:50:33;;;;;;;6.32;2.00;;;9.90;99.90;;;;;;5049638;28;20478;-78
2023/11/02 01:53:18;;;;;;;5.25;1.95;;;9.90;99.90;;;;;;5073614;28;20056;-80
2023/11/02 01:55:56;;;;;;;6.38;2.10;;;9.90;99.90;;;;;;5061420;28;20136;-79
2023/11/02 01:58:32;;;;;;;9.75;2.20;;;9.90;99.90;;;;;;5051064;28;20127;-79
2023/11/02 02:00:59;;;;;;;7.82;2.15;;;9.90;99.90;;;;;;5062112;28;20707;-79
2023/11/02 02:03:32;;;;;;;8.15;1.85;;;9.90;99.90;;;;;;5071786;28;20059;-79
2023/11/02 02:06:32;;;;;;;6.63;1.85;;;9.90;99.90;;;;;;5069113;28;20502;-80
2023/11/02 02:09:27;;;;;;;4.90;2.08;;;9.90;99.90;;;;;;5069497;28;20036;-79
2023/11/02 02:12:22;;;;;;;5.68;2.10;;;9.90;99.90;;;;;;5076600;28;20048;-79
2023/11/02 02:15:12;;;;;;;4.50;1.92;;;9.90;99.90;;;;;;5058769;28;20049;-79
2023/11/02 02:18:00;;;;;;;5.25;1.70;;;9.90;99.90;;;;;;5068338;28;20474;-79
2023/11/02 02:20:31;;;;;;;4.30;1.88;;;9.90;99.90;;;;;;5061452;28;20445;-80
2023/11/02 02:23:25;;;;;;;6.10;2.08;;;9.90;99.90;;;;;;5069749;28;20089;-79
2023/11/02 02:26:14;;;;;;;5.15;1.83;;;9.90;99.90;;;;;;5070737;28;20051;-79
2023/11/02 02:29:00;;;;;;;5.47;2.17;;;9.90;99.90;;;;;;5069663;28;20155;-78
2023/11/02 02:31:39;;;;;;;4.45;1.63;;;9.90;99.90;;;;;;5048083;28;20072;-79
2023/11/02 02:34:43;;;;;;;6.13;2.10;;;9.90;99.90;;;;;;5060099;28;20044;-79
2023/11/02 02:37:39;;;;;;;6.53;2.10;;;9.90;99.90;;;;;;5060009;28;20080;-79
2023/11/02 02:40:15;;;;;;;4.30;1.90;;;9.80;99.90;;;;;;5053685;28;20047;-79
2023/11/02 02:42:47;;;;;;;6.43;1.95;;;9.80;99.90;;;;;;5071399;28;20060;-79
2023/11/02 02:45:13;;;;;;;5.70;2.30;;;9.80;99.90;;;;;;5086978;28;20074;-79
2023/11/02 02:47:41;;;;;;;4.88;1.98;;;9.70;99.90;;;;;;5085668;28;20040;-79
2023/11/02 02:50:12;;;;;;;5.53;1.67;;;9.70;99.90;;;;;;5073475;28;20040;-75
2023/11/02 02:52:41;;;;;;;6.25;2.28;;;9.70;99.90;;;;;;5070652;28;20719;-74
2023/11/02 02:55:10;;;;;;;7.93;1.88;;;9.70;99.90;;;;;;5087896;28;20066;-75
2023/11/02 02:57:45;;;;;;;4.38;1.80;;;9.60;99.90;;;;;;5055894;28;20039;-75
2023/11/02 03:00:14;;;;;;;5.50;1.55;;;9.60;99.90;;;;;;5057034;28;20056;-75
2023/11/02 03:02:41;;;;;;;4.68;1.73;;;9.50;99.90;;;;;;5043346;28;20044;-75
2023/11/02 03:05:10;;;;;;;5.25;1.90;;;9.50;99.90;;;;;;5071429;28;20047;-75
2023/11/02 03:07:37;;;;;;;7.93;2.03;;;9.50;99.90;;;;;;5062602;28;20044;-75
2023/11/02 03:10:10;;;;;;;5.65;1.90;;;9.50;99.90;;;;;;5062682;28;20059;-75
2023/11/02 03:12:40;;;;;;;5.30;1.63;;;9.50;99.90;;;;;;5064097;28;20044;-75
2023/11/02 03:15:08;;;;;;;4.88;2.03;;;9.50;99.90;;;;;;5072174;28;20055;-75
2023/11/02 03:17:50;;;;;;;4.78;2.40;;;9.50;99.90;;;;;;5064348;28;20050;-75
2023/11/02 03:20:17;;;;;;;6.85;2.08;;;9.50;99.90;;;;;;5061937;28;20062;-75
2023/11/02 03:22:43;;;;;;;6.68;2.13;;;9.50;99.90;;;;;;5070113;28;20087;-74
2023/11/02 03:25:41;;;;;;;4.45;1.88;;;9.50;99.90;;;;;;5082236;28;20059;-75
2023/11/02 03:28:19;;;;;;;7.28;2.00;;;9.50;99.90;;;;;;5080275;28;20394;-74
2023/11/02 03:30:50;;;;;;;6.28;1.70;;;9.50;99.90;;;;;;5104625;28;20142;-75
2023/11/02 03:33:28;;;;;;;4.57;1.85;;;9.40;99.90;;;;;;5065328;28;20523;-75
2023/11/02 03:36:05;;;;;;;5.32;2.15;;;9.40;99.90;;;;;;5082875;28;20083;-74
2023/11/02 03:38:52;;;;;;;3.92;1.48;;;9.40;99.90;;;;;;5079996;28;20052;-75
2023/11/02 03:41:26;;;;;;;6.30;1.83;;;9.40;99.90;;;;;;5082194;28;20040;-75
2023/11/02 03:44:14;;;;;;;5.72;1.80;;;9.40;99.90;;;;;;5081593;28;20482;-75
2023/11/02 03:46:49;;;;;;;4.40;1.50;;;9.40;99.90;;;;;;5067168;28;20051;-74
2023/11/02 03:49:29;;;;;;;7.90;2.03;;;9.40;99.90;;;;;;5070132;28;20522;-75
2023/11/02 03:52:16;;;;;;;3.90;1.30;;;9.40;99.90;;;;;;5070156;28;20590;-75
2023/11/02 03:55:10;;;;;;;4.95;1.60;;;9.40;99.90;;;;;;5065523;28;20044;-75
2023/11/02 03:58:04;;;;;;;3.90;1.98;;;9.50;99.90;;;;;;5067070;28;20135;-74
2023/11/02 04:00:35;;;;;;;7.95;1.60;;;9.50;99.90;;;;;;5066249;28;20098;-74
2023/11/02 04:03:03;;;;;;;3.88;1.45;;;9.50;99.90;;;;;;5069161;28;20138;-74
2023/11/02 04:05:38;;;;;;;7.50;1.58;;;9.50;99.90;;;;;;5081476;28;20066;-74
2023/11/02 04:08:10;;;;;;;7.32;1.80;;;9.50;99.90;;;;;;5067956;28;20036;-74
2023/11/02 04:10:42;;;;;;;7.20;1.52;;;9.60;99.90;;;;;;5081692;28;20066;-75
2023/11/02 04:13:29;;;;;;;3.60;1.30;;;9.60;99.90;;;;;;5064079;28;20466;-74
2023/11/02 04:15:54;;;;;;;5.32;1.60;;;9.60;99.90;;;;;;5095310;28;20055;-74
2023/11/02 04:18:20;;;;;;;5.47;1.13;;;9.60;99.90;;;;;;5066194;28;20048;-75
2023/11/02 04:20:51;;;;;;;4.63;1.35;;;9.70;99.90;;;;;;5082288;28;20051;-73
2023/11/02 04:23:19;;;;;;;4.00;1.10;;;9.70;99.90;;;;;;5082678;28;20123;-74
2023/11/02 04:25:45;;;;;;;5.32;1.30;;;9.70;99.90;;;;;;5083173;28;20048;-74
2023/11/02 04:28:13;;;;;;;4.43;1.17;;;9.70;99.90;;;;;;5065428;28;20040;-74
2023/11/02 04:30:40;;;;;;;3.63;1.15;;;9.70;99.90;;;;;;5079392;28;20293;-74
2023/11/02 04:33:06;;;;;;;5.03;1.08;;;9.80;99.90;;;;;;5083650;28;20039;-75
2023/11/02 04:35:31;;;;;;;5.65;1.58;;;9.80;99.90;;;;;;5079694;28;20058;-74
2023/11/02 04:38:09;;;;;;;6.25;1.35;;;9.80;99.90;;;;;;5069531;28;20122;-75
2023/11/02 04:40:35;;;;;;;5.07;1.40;;;9.80;99.90;;;;;;5080276;28;20044;-74
2023/11/02 04:43:02;;;;;;;4.43;1.40;;;9.80;99.90;;;;;;5082249;28;20093;-73
2023/11/02 04:45:29;;;;;;;4.80;1.40;;;9.90;99.90;;;;;;5068275;28;20087;-74
2023/11/02 04:47:55;;;;;;;5.25;1.23;;;9.90;99.90;;;;;;5064657;28;20040;-74
2023/11/02 04:50:21;;;;;;;3.17;1.13;;;9.90;99.90;;;;;;5079249;28;20042;-74
2023/11/02 04:52:51;;;;;;;3.85;1.13;;;10.00;99.90;;;;;;5078914;28;20040;-74
2023/11/02 04:55:17;;;;;;;6.47;1.60;;;10.00;99.90;;;;;;5079756;28;20036;-78
2023/11/02 04:57:43;;;;;;;4.53;1.33;;;10.10;99.90;;;;;;5067064;28;20036;-78
2023/11/02 05:00:09;;;;;;;3.38;1.38;;;10.00;99.90;;;;;;5066476;28;20040;-78
2023/11/02 05:02:35;;;;;;;3.40;1.13;;;10.10;99.90;;;;;;5081951;28;20125;-79
2023/11/02 05:05:02;;;;;;;5.70;1.40;;;10.10;99.90;;;;;;5056093;28;20072;-79
2023/11/02 05:07:29;;;;;;;4.03;1.20;;;10.10;99.90;;;;;;5062012;28;20049;-79
2023/11/02 05:09:55;;;;;;;3.65;1.10;;;10.10;99.90;;;;;;5070713;28;20083;-79
2023/11/02 05:12:21;;;;;;;4.15;1.15;;;10.20;99.90;;;;;;5090314;28;20036;-80
2023/11/02 05:14:46;;;;;;;5.50;1.30;;;10.10;99.90;;;;;;5084210;28;20156;-80
2023/11/02 05:17:12;;;;;;;3.72;1.42;;;10.10;99.90;;;;;;5060289;28;20499;-80
2023/11/02 05:19:38;;;;;;;6.68;1.30;;;10.10;99.90;;;;;;5065199;28;20040;-79
2023/11/02 05:22:08;;;;;;;5.00;1.20;;;10.20;99.90;;;;;;5089804;28;20119;-80
2023/11/02 05:24:34;;;;;;;5.25;1.70;;;10.20;99.90;;;;;;5076818;28;20247;-79
2023/11/02 05:27:00;;;;;;;5.18;1.40;;;10.20;99.90;;;;;;5082266;28;20440;-79
2023/11/02 05:29:26;;;;;;;2.67;1.30;;;10.10;99.90;;;;;;5067897;28;20045;-80
2023/11/02 05:31:51;;;;;;;3.92;1.42;;;10.20;99.90;;;;;;5079369;28;20079;-79
2023/11/02 05:34:17;;;;;;;3.70;1.25;;;10.20;99.90;;;;;;5065626;28;20036;-79
2023/11/02 05:36:43;;;;;;;4.88;1.30;;;10.20;99.90;;;;;;5095635;28;20044;-80
2023/11/02 05:39:09;;;;;;;5.80;1.27;;;10.20;99.90;;;;;;5061249;28;20060;-79
2023/11/02 05:41:35;;;;;;;3.95;1.02;;;10.20;99.90;;;;;;5067124;28;20052;-79
2023/11/02 05:44:00;;;;;;;6.13;1.50;;;10.20;99.90;;;;;;5066285;28;20043;-80
2023/11/02 05:46:26;;;;;;;3.45;1.13;;;10.30;99.90;;;;;;5076847;28;20048;-79
2023/11/02 05:48:52;;;;;;;2.75;0.82;;;10.30;99.90;;;;;;5060467;28;20093;-81
2023/11/02 05:51:18;;;;;;;4.93;1.30;;;10.30;99.90;;;;;;5081975;28;20495;-79
2023/11/02 05:53:44;;;;;;;6.07;1.58;;;10.40;99.90;;;;;;5082816;28;20042;-79
2023/11/02 05:56:10;;;;;;;2.80;1.20;;;10.40;99.90;;;;;;5085747;28;20513;-80
2023/11/02 05:58:35;;;;;;;3.97;1.33;;;10.40;99.90;;;;;;5071499;28;20047;-80
2023/11/02 06:01:01;;;;;;;2.70;1.25;;;10.40;99.90;;;;;;5088852;28;20075;-80
2023/11/02 06:03:28;;;;;;;5.80;1.30;;;10.40;99.90;;;;;;5074203;28;20048;-79
2023/11/02 06:05:54;;;;;;;5.13;1.38;;;10.50;99.90;;;;;;5074729;28;20055;-79
2023/11/02 06:08:20;;;;;;;4.60;1.05;;;10.50;99.90;;;;;;5075090;28;20033;-78
2023/11/02 06:10:46;;;;;;;3.97;1.58;;;10.50;99.90;;;;;;5060279;28;20417;-79
2023/11/02 06:13:12;;;;;;;5.38;1.25;;;10.50;99.90;;;;;;5078928;28;20143;-78
2023/11/02 06:15:38;;;;;;;5.90;1.30;;;10.60;99.90;;;;;;5093665;28;20048;-79
2023/11/02 06:18:07;;;;;;;5.85;1.23;;;10.60;99.90;;;;;;5052727;28;20040;-80
2023/11/02 06:20:36;;;;;;;2.80;1.13;;;10.60;99.90;;;;;;5081512;28;20040;-78
2023/11/02 06:23:03;;;;;;;3.83;1.38;;;10.60;99.90;;;;;;5077128;28;20044;-77
2023/11/02 06:25:29;;;;;;;3.45;1.20;;;10.60;99.90;;;;;;5081211;28;20044;-80
2023/11/02 06:27:55;;;;;;;5.05;1.20;;;10.70;99.90;;;;;;5078320;28;20051;-80
2023/11/02 06:30:21;;;;;;;4.55;1.40;;;10.70;99.90;;;;;;5080365;28;20068;-78
2023/11/02 06:32:46;;;;;;;4.45;1.52;;;10.70;99.90;;;;;;5064833;28;20052;-79
2023/11/02 06:35:13;;;;;;;2.97;1.10;;;10.70;99.90;;;;;;5066920;28;20040;-79
2023/11/02 06:37:58;;;;;;;4.72;1.17;;;10.80;99.90;;;;;;5079479;28;20079;-78
2023/11/02 06:40:28;;;;;;;4.38;1.10;;;10.80;99.90;;;;;;5064748;28;20354;-78
2023/11/02 06:42:58;;;;;;;4.60;1.15;;;10.80;99.90;;;;;;5066014;28;20132;-79
2023/11/02 06:45:24;;;;;;;4.78;1.30;;;10.80;99.90;;;;;;5064583;28;20048;-79
2023/11/02 06:47:50;;;;;;;4.10;1.35;;;10.80;99.90;;;;;;5064968;28;20040;-79
2023/11/02 06:50:16;;;;;;;4.82;1.35;;;10.80;99.90;;;;;;5081012;28;20036;-83
2023/11/02 06:52:43;;;;;;;2.88;0.90;;;10.80;99.90;;;;;;5068361;28;20498;-82
2023/11/02 06:55:09;;;;;;;4.15;0.93;;;10.80;99.90;;;;;;5066470;28;20418;-83
2023/11/02 06:57:35;;;;;;;5.47;1.60;;;10.80;99.90;;;;;;5069765;28;20050;-82
2023/11/02 07:00:05;;;;;;;3.83;1.30;;;10.80;99.90;;;;;;5069290;28;20430;-84
2023/11/02 07:02:31;;;;;;;;;;;10.80;99.90;;;;;;5085646;28;20062;-76
2023/11/02 07:04:57;;;;;;;5.55;1.15;;;10.80;99.90;;;;;;5066154;28;20397;-75
2023/11/02 07:07:24;;;;;;;4.28;1.25;;;10.80;99.90;;;;;;5068610;28;20479;-75
2023/11/02 07:09:53;;;;;;;3.75;1.20;;;10.80;99.90;;;;;;5078648;28;20449;-75
2023/11/02 07:12:19;;;;;;;3.42;1.10;;;10.80;99.90;;;;;;5068553;28;20498;-75
2023/11/02 07:14:46;;;;;;;3.42;0.98;;;10.80;99.90;;;;;;5063377;28;20036;-75
2023/11/02 07:17:13;;;;;;;5.00;1.20;;;10.80;99.90;;;;;;5083037;28;20669;-75
2023/11/02 07:19:39;;;;;;;4.78;1.25;;;10.80;99.90;;;;;;5064534;28;20048;-75
2023/11/02 07:22:05;;;;;;;4.53;1.00;;;10.80;99.90;;;;;;5079464;28;20054;-74
2023/11/02 07:24:31;;;;;;;2.80;1.00;;;10.80;99.90;;;;;;5086842;28;20414;-75
2023/11/02 07:26:57;;;;;;;3.33;1.25;;;10.80;99.90;;;;;;5065658;28;20406;-74
2023/11/02 07:29:23;;;;;;;9.23;1.40;;;10.90;99.90;;;;;;5084458;28;20508;-74
2023/11/02 07:31:48;;;;;;;5.25;1.58;;;10.90;99.90;;;;;;5087032;28;20134;-74
2023/11/02 07:34:14;;;;;;;6.18;1.20;;;10.90;99.90;;;;;;5078835;28;20089;-74
2023/11/02 07:36:40;;;;;;;4.53;1.08;;;10.90;99.90;;;;;;5065734;28;20104;-74
2023/11/02 07:39:06;;;;;;;4.28;1.10;;;11.00;99.90;;;;;;5063202;28;20043;-74
2023/11/02 07:41:32;;;;;;;5.93;1.40;;;10.90;99.90;;;;;;5067409;28;20040;-74
2023/11/02 07:43:58;;;;;;;5.35;1.73;;;10.90;99.90;;;;;;5069713;28;20063;-74
2023/11/02 07:46:24;;;;;;;3.78;1.10;;;10.90;99.90;;;;;;5083060;28;20297;-74
2023/11/02 07:48:50;;;;;;;3.78;0.82;;;10.80;99.90;;;;;;5085441;28;20047;-75
2023/11/02 07:51:16;;;;;;;4.97;1.40;;;10.80;99.90;;;;;;5069969;28;20508;-74
2023/11/02 07:53:42;;;;;;;5.75;1.67;;;10.70;99.90;;;;;;5071312;28;20047;-74
2023/11/02 07:56:10;;;;;;;4.22;1.23;;;10.70;99.90;;;;;;5067219;28;20044;-74
2023/11/02 07:58:42;;;;;;;5.07;1.30;;;10.70;99.90;;;;;;5067266;28;20043;-74
2023/11/02 08:01:10;;;;;;;6.82;1.40;;;10.70;99.90;;;;;;5084854;28;20058;-74
2023/11/02 08:03:36;;;;;;;7.78;1.63;;;10.70;99.90;;;;;;5080803;28;20367;-74
2023/11/02 08:06:02;;;;;;;4.85;1.15;;;10.60;99.90;;;;;;5086753;28;20077;-75
2023/11/02 08:08:28;;;;;;;3.00;1.23;;;10.60;99.90;;;;;;5097666;27;20097;-74
2023/11/02 08:10:56;;;;;;;3.05;0.90;;;10.60;99.90;;;;;;5065174;28;20040;-75
2023/11/02 08:13:22;;;;;;;6.88;1.10;;;10.60;99.90;;;;;;5085755;28;20101;-75
2023/11/02 08:15:47;;;;;;;3.47;1.30;;;10.60;99.90;;;;;;5064315;28;20044;-74
2023/11/02 08:18:13;;;;;;;4.97;1.27;;;10.60;99.90;;;;;;5083634;28;20040;-74
2023/11/02 08:20:39;;;;;;;3.17;1.20;;;10.70;99.90;;;;;;5098925;27;20048;-75
2023/11/02 08:23:05;;;;;;;3.28;1.10;;;10.70;99.90;;;;;;5067320;28;20044;-75
2023/11/02 08:25:31;;;;;;;3.78;1.20;;;10.70;99.90;;;;;;5067911;28;20486;-74
2023/11/02 08:27:57;;;;;;;5.32;1.30;;;10.80;99.90;;;;;;5067453;28;20051;-82
2023/11/02 08:30:23;;;;;;;3.20;0.90;;;10.80;99.90;;;;;;5067680;28;20129;-81
2023/11/02 08:32:50;;;;;;;3.17;1.33;;;10.80;99.90;;;;;;5069802;28;20776;-80
2023/11/02 08:35:20;;;;;;;5.15;1.33;;;10.80;99.90;;;;;;5082769;28;20032;-80
2023/11/02 08:37:47;;;;;;;5.75;1.30;;;10.80;99.90;;;;;;5066327;28;20733;-81
2023/11/02 08:40:13;;;;;;;4.57;1.27;;;10.80;99.90;;;;;;5064062;28;20032;-81
2023/11/02 08:42:40;;;;;;;3.65;1.10;;;10.90;99.90;;;;;;5085120;28;20048;-80
2023/11/02 08:45:06;;;;;;;3.65;1.02;;;10.90;99.90;;;;;;5076724;28;20040;-79
2023/11/02 08:47:32;;;;;;;3.33;1.05;;;10.90;99.90;;;;;;5061601;28;20051;-79
2023/11/02 08:49:57;;;;;;;4.40;0.88;;;10.90;99.90;;;;;;5080508;28;20051;-82
2023/11/02 08:52:23;;;;;;;3.38;1.27;;;10.90;99.90;;;;;;5082070;28;20040;-79
2023/11/02 08:54:52;;;;;;;4.57;1.08;;;10.90;99.90;;;;;;5077170;28;20050;-81
2023/11/02 08:57:18;;;;;;;3.85;1.17;;;11.00;99.90;;;;;;5078002;28;20048;-81
2023/11/02 08:59:45;;;;;;;3.85;1.00;;;11.00;99.90;;;;;;5077022;28;20049;-80
2023/11/02 09:02:11;;;;;;;3.70;1.02;;;10.90;99.90;;;;;;5065817;28;20078;-81
2023/11/02 09:04:36;;;;;;;3.20;1.20;;;11.00;99.90;;;;;;5070769;28;20137;-81
2023/11/02 09:07:02;;;;;;;4.03;1.20;;;11.00;99.90;;;;;;5064336;28;20506;-83
2023/11/02 09:09:28;;;;;;;4.68;1.23;;;11.10;99.90;;;;;;5063019;28;20153;-79
2023/11/02 09:11:54;;;;;;;3.45;1.00;;;11.10;99.90;;;;;;5078623;28;20052;-81
2023/11/02 09:14:21;;;;;;;3.25;0.85;;;11.20;99.90;;;;;;5077436;28;20099;-81
2023/11/02 09:16:47;;;;;;;4.80;1.23;;;11.30;99.90;;;;;;5080341;28;20123;-80
2023/11/02 09:19:12;;;;;;;5.00;0.90;;;11.40;99.90;;;;;;5080483;28;20033;-80
2023/11/02 09:21:39;;;;;;;3.38;0.90;;;11.50;99.90;;;;;;5080406;28;20051;-81
2023/11/02 09:24:05;;;;;;;3.15;0.93;;;11.60;99.90;;;;;;5080688;28;20631;-79
2023/11/02 09:26:32;;;;;;;3.90;1.00;;;11.70;99.90;;;;;;5078762;28;20047;-80
2023/11/02 09:28:58;;;;;;;3.40;0.88;;;11.80;99.90;;;;;;5082512;28;20044;-79
2023/11/02 09:31:29;;;;;;;3.15;0.80;;;11.80;99.90;;;;;;5063120;28;20043;-79
2023/11/02 09:34:00;;;;;;;3.55;0.80;;;11.90;99.90;;;;;;5064023;28;20190;-81
2023/11/02 09:36:26;;;;;;;4.60;0.98;;;12.00;99.90;;;;;;5078020;28;20043;-80
2023/11/02 09:38:52;;;;;;;4.18;0.98;;;12.00;99.90;;;;;;5064181;28;20364;-80
2023/11/02 09:41:18;;;;;;;3.00;1.20;;;12.10;99.90;;;;;;5079125;28;21696;-80
2023/11/02 09:43:44;;;;;;;2.22;0.90;;;12.10;99.90;;;;;;5078710;28;20054;-80
2023/11/02 09:46:12;;;;;;;4.10;1.30;;;12.20;99.90;;;;;;5084488;28;20055;-74
2023/11/02 09:48:41;;;;;;;3.25;0.95;;;12.20;99.90;;;;;;5079332;28;20048;-75
2023/11/02 09:51:08;;;;;;;3.75;0.90;;;12.20;99.90;;;;;;5080766;28;20049;-75
2023/11/02 09:53:34;;;;;;;2.08;0.70;;;12.20;99.90;;;;;;5081125;28;20456;-75
2023/11/02 09:56:01;;;;;;;3.45;0.85;;;12.20;99.90;;;;;;5075182;28;20502;-75
2023/11/02 09:58:27;;;;;;;2.30;0.70;;;12.20;99.90;;;;;;5080443;28;20142;-74
2023/11/02 10:00:54;;;;;;;2.70;0.70;;;12.20;99.90;;;;;;5094318;28;20050;-74
2023/11/02 10:03:20;;;;;;;3.70;0.98;;;12.20;99.90;;;;;;5079488;28;20521;-75
2023/11/02 10:05:46;;;;;;;4.90;1.30;;;12.20;99.90;;;;;;5100445;28;20052;-74
2023/11/02 10:08:12;;;;;;;2.47;0.90;;;12.20;99.90;;;;;;5076271;28;20036;-75
2023/11/02 10:10:38;;;;;;;4.22;1.00;;;12.20;99.90;;;;;;5060728;28;20040;-74
2023/11/02 10:13:04;;;;;;;3.92;0.82;;;12.20;99.90;;;;;;5077498;28;20104;-73
2023/11/02 10:15:30;;;;;;;2.15;0.68;;;12.20;99.90;;;;;;5071236;28;20094;-75
2023/11/02 10:17:56;;;;;;;5.13;0.68;;;12.30;99.90;;;;;;5080668;28;20112;-74
2023/11/02 10:20:23;;;;;;;3.88;0.85;;;12.30;99.90;;;;;;5091786;28;20402;-75
2023/11/02 10:23:13;;;;;;;3.38;0.75;;;12.30;99.90;;;;;;5066147;28;20706;-75
2023/11/02 10:25:42;;;;;;;2.92;0.68;;;12.40;99.90;;;;;;5056469;28;20040;-73
2023/11/02 10:28:12;;;;;;;2.95;0.80;;;12.40;99.90;;;;;;5094862;28;20502;-74
2023/11/02 10:30:38;;;;;;;2.83;0.80;;;12.50;99.90;;;;;;5062937;28;20097;-74
2023/11/02 10:33:08;;;;;;;4.78;0.82;;;12.60;99.90;;;;;;5081941;28;20051;-73
2023/11/02 10:35:37;;;;;;;;;;;12.70;99.90;;;;;;5086907;28;20062;-73
2023/11/02 10:38:07;;;;;;;4.10;0.75;;;12.70;99.90;;;;;;5067703;28;20346;-74
2023/11/02 10:40:46;;;;;;;3.35;0.60;;;12.80;99.90;;;;;;5082332;28;20040;-73
2023/11/02 10:43:19;;;;;;;4.05;0.82;;;12.80;99.90;;;;;;5067841;28;20096;-74
2023/11/02 10:45:52;;;;;;;2.17;0.45;;;12.90;99.90;;;;;;5067417;28;20050;-74
2023/11/02 10:48:19;;;;;;;2.72;0.73;;;12.90;99.90;;;;;;5094338;28;20032;-77
2023/11/02 10:50:53;;;;;;;2.33;0.60;;;13.00;99.90;;;;;;5084729;28;20055;-75
2023/11/02 10:53:49;;;;;;;3.13;0.85;;;13.10;99.90;;;;;;5081680;28;20044;-74
2023/11/02 10:56:20;;;;;;;2.17;0.50;;;13.20;99.90;;;;;;5059509;28;20044;-75
2023/11/02 10:58:49;;;;;;;2.55;0.75;;;13.30;99.90;;;;;;5078514;28;20052;-75
2023/11/02 11:01:17;;;;;;;3.63;0.80;;;13.40;99.90;;;;;;5082851;28;20062;-74
2023/11/02 11:03:45;;;;;;;2.50;0.80;;;13.40;99.90;;;;;;5084439;28;20048;-74
2023/11/02 11:06:12;;;;;;;7.03;1.55;;;13.50;99.90;;;;;;5079968;28;20040;-75
2023/11/02 11:08:39;;;;;;;2.90;0.70;;;13.50;99.90;;;;;;5082376;28;20062;-75
2023/11/02 11:11:06;;;;;;;3.53;1.00;;;13.60;99.90;;;;;;5062689;28;20108;-75
2023/11/02 11:13:32;;;;;;;2.80;0.85;;;13.60;99.90;;;;;;5065632;28;20077;-75
2023/11/02 11:15:59;;;;;;;4.07;0.73;;;13.70;99.90;;;;;;5089670;28;20048;-74
2023/11/02 11:18:27;;;;;;;4.15;0.80;;;13.80;99.90;;;;;;5081202;28;20055;-75
2023/11/02 11:20:52;;;;;;;3.25;0.88;;;13.70;99.90;;;;;;5088003;28;20082;-76
2023/11/02 11:23:19;;;;;;;3.25;0.80;;;13.70;99.90;;;;;;5065822;28;20081;-75
2023/11/02 11:26:03;;;;;;;5.00;0.70;;;13.70;99.90;;;;;;5084344;28;20130;-75
2023/11/02 11:28:38;;;;;;;4.25;1.00;;;13.70;99.90;;;;;;5081156;28;20130;-75
2023/11/02 11:31:05;;;;;;;5.90;1.95;;;13.70;99.90;;;;;;5065346;28;20079;-76
2023/11/02 11:33:48;;;;;;;2.65;0.82;;;13.70;99.90;;;;;;5076020;28;20423;-75
2023/11/02 11:36:27;;;;;;;3.38;0.80;;;13.80;99.90;;;;;;5095930;28;20119;-75
2023/11/02 11:38:53;;;;;;;3.22;0.60;;;13.80;99.90;;;;;;5082341;28;20040;-76
2023/11/02 11:41:44;;;;;;;4.95;0.98;;;13.80;99.90;;;;;;5075374;28;20040;-75
2023/11/02 11:44:20;;;;;;;4.70;1.10;;;13.80;99.90;;;;;;5062345;28;20055;-75
2023/11/02 11:46:52;;;;;;;4.78;0.90;;;13.80;99.90;;;;;;5066696;28;20402;-76
2023/11/02 11:49:36;;;;;;;4.75;0.95;;;13.90;99.90;;;;;;5062547;28;20055;-76
2023/11/02 11:52:25;;;;;;;4.38;0.80;;;13.90;99.90;;;;;;5064106;28;20453;-77
2023/11/02 11:54:52;;;;;;;5.22;1.52;;;13.90;99.90;;;;;;5063534;28;20075;-76
2023/11/02 11:57:57;;;;;;;7.25;0.80;;;13.90;99.90;;;;;;5079348;28;20111;-75
2023/11/02 12:00:25;;;;;;;3.92;1.05;;;13.90;99.90;;;;;;5066688;28;20047;-76
2023/11/02 12:02:55;;;;;;;4.13;1.13;;;14.00;99.90;;;;;;5076339;28;20059;-76
2023/11/02 12:05:43;;;;;;;4.57;0.90;;;14.00;99.90;;;;;;5068077;28;20035;-76
2023/11/02 12:08:11;;;;;;;5.28;1.10;;;14.00;99.90;;;;;;5078436;28;20040;-76
2023/11/02 12:10:50;;;;;;;3.53;1.00;;;14.00;99.90;;;;;;5079411;28;20059;-76
2023/11/02 12:13:16;;;;;;;4.07;1.00;;;14.00;99.90;;;;;;5079815;28;20086;-77
2023/11/02 12:16:01;;;;;;;3.55;1.00;;;14.00;99.90;;;;;;5062397;28;20042;-76
2023/11/02 12:18:32;;;;;;;5.53;0.93;;;14.00;99.90;;;;;;5097006;28;20040;-76
2023/11/02 12:21:00;;;;;;;4.55;0.95;;;14.00;99.90;;;;;;5068501;28;20124;-76
2023/11/02 12:23:39;;;;;;;6.20;1.20;;;14.10;99.90;;;;;;5082324;28;20036;-76
2023/11/02 12:26:06;;;;;;;4.45;1.10;;;14.10;99.90;;;;;;5081621;28;20525;-75
2023/11/02 12:29:04;;;;;;;5.95;0.98;;;14.10;99.90;;;;;;5082893;28;20125;-75
2023/11/02 12:31:32;;;;;;;5.60;1.40;;;14.20;99.90;;;;;;5088261;28;20055;-78
2023/11/02 12:34:08;;;;;;;6.28;1.17;;;14.30;99.90;;;;;;5080876;28;20186;-76
2023/11/02 12:36:35;;;;;;;6.28;1.33;;;14.40;99.90;;;;;;5061647;28;20044;-77
2023/11/02 12:39:07;;;;;;;6.70;1.30;;;14.40;99.90;;;;;;5082534;28;20123;-77
2023/11/02 12:41:33;;;;;;;4.40;1.10;;;14.50;99.90;;;;;;5063146;28;20534;-76
2023/11/02 12:43:59;;;;;;;3.97;1.10;;;14.50;99.90;;;;;;5083203;28;20086;-76
2023/11/02 12:46:25;;;;;;;5.78;1.40;;;14.40;99.90;;;;;;5064515;28;20048;-76
2023/11/02 12:48:52;;;;;;;5.82;1.33;;;14.40;99.90;;;;;;5063867;28;20490;-76
2023/11/02 12:51:21;;;;;;;6.05;1.98;;;14.40;99.90;;;;;;5077750;28;20109;-78
2023/11/02 12:53:52;;;;;;;5.80;1.23;;;14.40;99.90;;;;;;5097189;27;20108;-78
2023/11/02 12:56:29;;;;;;;6.80;1.77;;;14.40;99.90;;;;;;5076905;28;20083;-77
2023/11/02 12:59:08;;;;;;;5.82;1.50;;;14.40;99.90;;;;;;5080272;28;20576;-77
2023/11/02 13:01:51;;;;;;;6.63;1.40;;;14.30;99.90;;;;;;5081940;28;20457;-77
2023/11/02 13:04:18;;;;;;;6.80;1.08;;;14.40;99.90;;;;;;5071271;28;20137;-77
2023/11/02 13:06:44;;;;;;;7.47;1.25;;;14.30;99.90;;;;;;5081666;28;20072;-77
2023/11/02 13:09:12;;;;;;;6.13;1.20;;;14.30;99.90;;;;;;5085476;27;20733;-77